Bw Mindoro — MAKR9 — position and weather

sailwx.info

Track history (hours):
 
Tides and Currents Weather Stations Pressure Air Temp Water Temp Dewpoint Dewpoint Depression Visibility Wind Speed Wind Dir Waves Ship Positions

Bw Mindoro

Last reported at 2017-Nov-23 19:00 UTC. Time now 2017-Nov-23 22:28 UTC.
Position N 50°07' W 001°05'.

Length 226 m; draft 7.8 m.

Type: Tanker. MMSI: 232005596.

Date/timePositionNaut miles runAvg speedWind from/ knotsBaromVisibWave heightAir tempDewpointWater temp
2017-Nov-23 19:00N 50°07' W 001°05'713.1
2017-Nov-23 18:30N 50°05' W 001°15'713.0
2017-Nov-23 18:00N 50°04' W 001°25'612.6
2017-Nov-23 17:31N 50°03' W 001°34'612.2
2017-Nov-23 17:01N 50°01' W 001°44'611.6
2017-Nov-23 16:31N 49°59' W 001°52'611.3
2017-Nov-23 16:01N 49°58' W 002°01'611.7
2017-Nov-23 15:28N 49°57' W 002°10'1614.2
2017-Nov-23 14:22N 49°53' W 002°34'713.4
2017-Nov-23 13:52N 49°51' W 002°44'512.4
2017-Nov-23 13:30N 49°50' W 002°51'812.7
2017-Nov-23 12:52N 49°46' W 003°01'512.8
2017-Nov-23 12:30N 49°44' W 003°08'712.9
2017-Nov-23 11:58N 49°40' W 003°17'5512.6
2017-Nov-23 07:35N 49°11' W 004°29'912.8
2017-Nov-23 06:52N 49°07' W 004°42'512.7
2017-Nov-23 06:29N 49°04' W 004°48'1312.6
2017-Nov-23 05:26N 48°58' W 005°06'512.6
2017-Nov-23 05:01N 48°55' W 005°13'612.2
2017-Nov-23 04:30N 48°53' W 005°21'612.1
2017-Nov-23 03:59N 48°50' W 005°30'612.0
2017-Nov-23 03:28N 48°47' W 005°38'611.8
2017-Nov-23 03:00N 48°42' W 005°42'712.2
2017-Nov-23 02:26N 48°36' W 005°48'911.9
2017-Nov-23 01:41N 48°28' W 005°54'  
2017-Nov-20 00:31N 36°07' W 005°23'0 0.7
2017-Nov-19 23:55N 36°07' W 005°22'0 0.2
2017-Nov-19 23:22N 36°07' W 005°22'0 0.1
2017-Nov-19 22:58N 36°07' W 005°22'0 0.0
2017-Nov-19 22:22N 36°07' W 005°22'0 0.1
2017-Nov-19 21:55N 36°07' W 005°22'0 0.0
2017-Nov-19 21:28N 36°07' W 005°22'0 0.0
2017-Nov-19 20:52N 36°07' W 005°22'0 0.1
2017-Nov-19 20:19N 36°07' W 005°22'0 0.0
2017-Nov-19 19:55N 36°07' W 005°22'0 0.0
2017-Nov-19 19:28N 36°07' W 005°22'0 0.1
2017-Nov-19 18:55N 36°07' W 005°22'0 0.0
2017-Nov-19 18:25N 36°07' W 005°22'0 0.0
2017-Nov-19 17:52N 36°07' W 005°22'0 0.1
2017-Nov-19 17:28N 36°07' W 005°22'0 0.0
2017-Nov-19 16:58N 36°07' W 005°22'0 0.1
2017-Nov-19 16:28N 36°07' W 005°22'0 0.1
2017-Nov-19 15:58N 36°07' W 005°22'0 0.1
2017-Nov-19 15:22N 36°07' W 005°22'0 0.0
2017-Nov-19 14:58N 36°07' W 005°22'0 0.0
2017-Nov-19 14:25N 36°07' W 005°22'0 0.1
2017-Nov-19 13:58N 36°07' W 005°22'0 0.0
2017-Nov-19 13:28N 36°07' W 005°22'0 0.0
2017-Nov-19 12:58N 36°07' W 005°22'0 0.2
2017-Nov-19 10:58N 36°07' W 005°22'2 4.0
2017-Nov-19 10:29N 36°05' W 005°21'4 3.7
2017-Nov-19 09:24N 36°01' W 005°19'511.8
2017-Nov-19 09:00N 35°59' W 005°24'19715.7
2017-Nov-18 20:28N 33°46' W 008°21'716.2
2017-Nov-18 20:00N 33°40' W 008°27'816.5
2017-Nov-18 19:30N 33°34' W 008°33'916.0
2017-Nov-18 18:55N 33°26' W 008°39'615.5
2017-Nov-18 18:30N 33°19' W 008°41'714.4
2017-Nov-18 18:00N 33°13' W 008°43'  
2017-Nov-14 11:27N 35°58' W 005°32'814.6
2017-Nov-14 10:56N 36°00' W 005°23'614.0
2017-Nov-14 10:30N 36°01' W 005°16'  
Track history (hours):
 
Tides and Currents Weather Stations Pressure Air Temp Water Temp Dewpoint Dewpoint Depression Visibility Wind Speed Wind Dir Waves Ship Positions

Bw Mindoro

Last reported at 2017-Nov-23 19:00 UTC. Time now 2017-Nov-23 22:28 UTC.
Position N 50°07' W 001°05'.

Length 226 m; draft 7.8 m.

Type: Tanker. MMSI: 232005596.

Date/timePositionNaut miles runAvg speedWind from/ knotsBaromVisibWave heightAir tempDewpointWater temp
2017-Nov-23 19:00N 50°07' W 001°05'713.1
2017-Nov-23 18:30N 50°05' W 001°15'713.0
2017-Nov-23 18:00N 50°04' W 001°25'612.6
2017-Nov-23 17:31N 50°03' W 001°34'612.2
2017-Nov-23 17:01N 50°01' W 001°44'611.6
2017-Nov-23 16:31N 49°59' W 001°52'611.3
2017-Nov-23 16:01N 49°58' W 002°01'611.7
2017-Nov-23 15:28N 49°57' W 002°10'1614.2
2017-Nov-23 14:22N 49°53' W 002°34'713.4
2017-Nov-23 13:52N 49°51' W 002°44'512.4
2017-Nov-23 13:30N 49°50' W 002°51'812.7
2017-Nov-23 12:52N 49°46' W 003°01'512.8
2017-Nov-23 12:30N 49°44' W 003°08'712.9
2017-Nov-23 11:58N 49°40' W 003°17'5512.6
2017-Nov-23 07:35N 49°11' W 004°29'912.8
2017-Nov-23 06:52N 49°07' W 004°42'512.7
2017-Nov-23 06:29N 49°04' W 004°48'1312.6
2017-Nov-23 05:26N 48°58' W 005°06'512.6
2017-Nov-23 05:01N 48°55' W 005°13'612.2
2017-Nov-23 04:30N 48°53' W 005°21'612.1
2017-Nov-23 03:59N 48°50' W 005°30'612.0
2017-Nov-23 03:28N 48°47' W 005°38'611.8
2017-Nov-23 03:00N 48°42' W 005°42'712.2
2017-Nov-23 02:26N 48°36' W 005°48'911.9
2017-Nov-23 01:41N 48°28' W 005°54'  
2017-Nov-20 00:31N 36°07' W 005°23'0 0.7
2017-Nov-19 23:55N 36°07' W 005°22'0 0.2
2017-Nov-19 23:22N 36°07' W 005°22'0 0.1
2017-Nov-19 22:58N 36°07' W 005°22'0 0.0
2017-Nov-19 22:22N 36°07' W 005°22'0 0.1
2017-Nov-19 21:55N 36°07' W 005°22'0 0.0
2017-Nov-19 21:28N 36°07' W 005°22'0 0.0
2017-Nov-19 20:52N 36°07' W 005°22'0 0.1
2017-Nov-19 20:19N 36°07' W 005°22'0 0.0
2017-Nov-19 19:55N 36°07' W 005°22'0 0.0
2017-Nov-19 19:28N 36°07' W 005°22'0 0.1
2017-Nov-19 18:55N 36°07' W 005°22'0 0.0
2017-Nov-19 18:25N 36°07' W 005°22'0 0.0
2017-Nov-19 17:52N 36°07' W 005°22'0 0.1
2017-Nov-19 17:28N 36°07' W 005°22'0 0.0
2017-Nov-19 16:58N 36°07' W 005°22'0 0.1
2017-Nov-19 16:28N 36°07' W 005°22'0 0.1
2017-Nov-19 15:58N 36°07' W 005°22'0 0.1
2017-Nov-19 15:22N 36°07' W 005°22'0 0.0
2017-Nov-19 14:58N 36°07' W 005°22'0 0.0
2017-Nov-19 14:25N 36°07' W 005°22'0 0.1
2017-Nov-19 13:58N 36°07' W 005°22'0 0.0
2017-Nov-19 13:28N 36°07' W 005°22'0 0.0
2017-Nov-19 12:58N 36°07' W 005°22'0 0.2
2017-Nov-19 10:58N 36°07' W 005°22'2 4.0
2017-Nov-19 10:29N 36°05' W 005°21'4 3.7
2017-Nov-19 09:24N 36°01' W 005°19'511.8
2017-Nov-19 09:00N 35°59' W 005°24'19715.7
2017-Nov-18 20:28N 33°46' W 008°21'716.2
2017-Nov-18 20:00N 33°40' W 008°27'816.5
2017-Nov-18 19:30N 33°34' W 008°33'916.0
2017-Nov-18 18:55N 33°26' W 008°39'615.5
2017-Nov-18 18:30N 33°19' W 008°41'714.4
2017-Nov-18 18:00N 33°13' W 008°43'  
2017-Nov-14 11:27N 35°58' W 005°32'814.6
2017-Nov-14 10:56N 36°00' W 005°23'614.0
2017-Nov-14 10:30N 36°01' W 005°16'  

Dump ship's entire track history